sensor_id;sensor_type;location;lat;lon;timestamp;temperature;humidity
20858;DHT22;10589;53.636;10.012;2023-01-31T04:45:30;3.70;99.90
20858;DHT22;10589;53.636;10.012;2023-01-31T04:47:56;3.60;99.90
20858;DHT22;10589;53.636;10.012;2023-01-31T04:50:21;3.60;99.90
20858;DHT22;10589;53.636;10.012;2023-01-31T04:52:50;3.70;99.90
20858;DHT22;10589;53.636;10.012;2023-01-31T04:55:17;3.80;99.90
20858;DHT22;10589;53.636;10.012;2023-01-31T04:57:42;3.80;99.90
20858;DHT22;10589;53.636;10.012;2023-01-31T05:00:09;3.80;99.90
20858;DHT22;10589;53.636;10.012;2023-01-31T05:02:34;3.80;99.90
20858;DHT22;10589;53.636;10.012;2023-01-31T05:05:01;3.90;99.90
20858;DHT22;10589;53.636;10.012;2023-01-31T05:07:27;3.90;99.90
20858;DHT22;10589;53.636;10.012;2023-01-31T05:09:52;3.90;99.90
20858;DHT22;10589;53.636;10.012;2023-01-31T05:12:18;3.90;99.90
20858;DHT22;10589;53.636;10.012;2023-01-31T05:14:43;3.90;99.90
20858;DHT22;10589;53.636;10.012;2023-01-31T05:17:09;4.00;99.90
20858;DHT22;10589;53.636;10.012;2023-01-31T05:19:35;4.00;99.90
20858;DHT22;10589;53.636;10.012;2023-01-31T05:22:00;4.00;99.90
20858;DHT22;10589;53.636;10.012;2023-01-31T05:24:28;3.90;99.90
20858;DHT22;10589;53.636;10.012;2023-01-31T05:26:55;4.00;99.90
20858;DHT22;10589;53.636;10.012;2023-01-31T05:29:30;4.00;99.90
20858;DHT22;10589;53.636;10.012;2023-01-31T05:31:59;4.00;99.90
20858;DHT22;10589;53.636;10.012;2023-01-31T05:34:26;4.00;99.90
20858;DHT22;10589;53.636;10.012;2023-01-31T05:36:53;3.90;99.90
20858;DHT22;10589;53.636;10.012;2023-01-31T05:39:18;4.00;99.90
20858;DHT22;10589;53.636;10.012;2023-01-31T05:41:44;4.00;99.90
20858;DHT22;10589;53.636;10.012;2023-01-31T05:44:10;3.90;99.90
20858;DHT22;10589;53.636;10.012;2023-01-31T05:46:36;4.00;99.90
20858;DHT22;10589;53.636;10.012;2023-01-31T05:49:03;3.90;99.90
20858;DHT22;10589;53.636;10.012;2023-01-31T05:51:28;3.90;99.90
20858;DHT22;10589;53.636;10.012;2023-01-31T05:53:54;3.90;99.90
20858;DHT22;10589;53.636;10.012;2023-01-31T05:56:21;3.90;99.90
20858;DHT22;10589;53.636;10.012;2023-01-31T05:58:46;3.90;99.90
20858;DHT22;10589;53.636;10.012;2023-01-31T06:01:18;3.90;99.90
20858;DHT22;10589;53.636;10.012;2023-01-31T06:03:44;3.90;99.90
20858;DHT22;10589;53.636;10.012;2023-01-31T06:06:10;3.80;99.90
20858;DHT22;10589;53.636;10.012;2023-01-31T06:08:35;3.80;99.90
20858;DHT22;10589;53.636;10.012;2023-01-31T06:11:02;3.90;99.90
20858;DHT22;10589;53.636;10.012;2023-01-31T06:13:29;3.90;99.90
20858;DHT22;10589;53.636;10.012;2023-01-31T06:15:55;3.90;99.90
20858;DHT22;10589;53.636;10.012;2023-01-31T06:18:21;3.80;99.90
20858;DHT22;10589;53.636;10.012;2023-01-31T06:20:46;3.90;99.90
20858;DHT22;10589;53.636;10.012;2023-01-31T06:23:12;3.90;99.90
20858;DHT22;10589;53.636;10.012;2023-01-31T06:25:38;3.90;99.90
20858;DHT22;10589;53.636;10.012;2023-01-31T06:28:03;3.80;99.90
20858;DHT22;10589;53.636;10.012;2023-01-31T06:30:30;3.80;99.90
20858;DHT22;10589;53.636;10.012;2023-01-31T06:32:58;3.80;99.90
20858;DHT22;10589;53.636;10.012;2023-01-31T06:35:24;3.90;99.90
20858;DHT22;10589;53.636;10.012;2023-01-31T06:37:50;3.90;99.90
20858;DHT22;10589;53.636;10.012;2023-01-31T06:40:15;3.90;99.90
20858;DHT22;10589;53.636;10.012;2023-01-31T06:42:41;3.90;99.90
20858;DHT22;10589;53.636;10.012;2023-01-31T06:45:07;3.90;99.90
20858;DHT22;10589;53.636;10.012;2023-01-31T06:47:33;3.90;99.90
20858;DHT22;10589;53.636;10.012;2023-01-31T06:49:58;3.90;99.90
20858;DHT22;10589;53.636;10.012;2023-01-31T06:52:24;3.90;99.90
20858;DHT22;10589;53.636;10.012;2023-01-31T06:54:49;4.00;99.90
20858;DHT22;10589;53.636;10.012;2023-01-31T06:57:15;3.90;99.90
20858;DHT22;10589;53.636;10.012;2023-01-31T06:59:41;3.90;99.90
20858;DHT22;10589;53.636;10.012;2023-01-31T07:02:09;3.90;99.90
20858;DHT22;10589;53.636;10.012;2023-01-31T07:04:35;3.90;99.90
20858;DHT22;10589;53.636;10.012;2023-01-31T07:07:01;4.00;99.90
20858;DHT22;10589;53.636;10.012;2023-01-31T07:09:26;3.90;99.90
20858;DHT22;10589;53.636;10.012;2023-01-31T07:11:52;3.90;99.90
20858;DHT22;10589;53.636;10.012;2023-01-31T07:14:18;3.90;99.90
20858;DHT22;10589;53.636;10.012;2023-01-31T07:16:43;4.00;99.90
20858;DHT22;10589;53.636;10.012;2023-01-31T07:19:09;3.90;99.90
20858;DHT22;10589;53.636;10.012;2023-01-31T07:21:35;3.90;99.90
20858;DHT22;10589;53.636;10.012;2023-01-31T07:24:02;3.90;99.90
20858;DHT22;10589;53.636;10.012;2023-01-31T07:26:28;4.00;99.90
20858;DHT22;10589;53.636;10.012;2023-01-31T07:28:53;4.00;99.90
20858;DHT22;10589;53.636;10.012;2023-01-31T07:31:19;4.00;99.90
20858;DHT22;10589;53.636;10.012;2023-01-31T07:33:45;4.00;99.90
20858;DHT22;10589;53.636;10.012;2023-01-31T07:36:15;4.00;99.90
20858;DHT22;10589;53.636;10.012;2023-01-31T07:38:44;4.00;99.90
20858;DHT22;10589;53.636;10.012;2023-01-31T07:41:10;4.10;99.90
20858;DHT22;10589;53.636;10.012;2023-01-31T07:43:36;4.10;99.90
20858;DHT22;10589;53.636;10.012;2023-01-31T07:46:04;4.10;99.90
20858;DHT22;10589;53.636;10.012;2023-01-31T07:48:30;4.10;99.90
20858;DHT22;10589;53.636;10.012;2023-01-31T07:51:00;4.20;99.90
20858;DHT22;10589;53.636;10.012;2023-01-31T07:53:28;4.20;99.90
20858;DHT22;10589;53.636;10.012;2023-01-31T07:56:03;4.30;99.90
20858;DHT22;10589;53.636;10.012;2023-01-31T07:58:29;4.30;99.90
20858;DHT22;10589;53.636;10.012;2023-01-31T08:00:54;4.40;99.90
20858;DHT22;10589;53.636;10.012;2023-01-31T08:03:39;4.40;99.90
20858;DHT22;10589;53.636;10.012;2023-01-31T08:06:08;4.50;99.90
20858;DHT22;10589;53.636;10.012;2023-01-31T08:08:35;4.40;99.90
20858;DHT22;10589;53.636;10.012;2023-01-31T08:11:01;4.60;99.90
20858;DHT22;10589;53.636;10.012;2023-01-31T08:13:30;4.50;99.90
20858;DHT22;10589;53.636;10.012;2023-01-31T08:15:55;4.60;99.90
20858;DHT22;10589;53.636;10.012;2023-01-31T08:18:21;4.70;99.90
20858;DHT22;10589;53.636;10.012;2023-01-31T08:20:46;4.70;99.90
20858;DHT22;10589;53.636;10.012;2023-01-31T08:23:12;4.70;99.90
20858;DHT22;10589;53.636;10.012;2023-01-31T08:25:38;4.70;99.90
20858;DHT22;10589;53.636;10.012;2023-01-31T08:28:03;4.70;99.90
20858;DHT22;10589;53.636;10.012;2023-01-31T08:30:29;4.70;99.90
20858;DHT22;10589;53.636;10.012;2023-01-31T08:32:55;4.80;99.90
20858;DHT22;10589;53.636;10.012;2023-01-31T08:35:21;4.70;99.90
20858;DHT22;10589;53.636;10.012;2023-01-31T08:37:46;4.80;99.90
20858;DHT22;10589;53.636;10.012;2023-01-31T08:40:12;4.70;99.90
20858;DHT22;10589;53.636;10.012;2023-01-31T08:42:38;4.70;99.90
20858;DHT22;10589;53.636;10.012;2023-01-31T08:45:04;4.70;99.90
20858;DHT22;10589;53.636;10.012;2023-01-31T08:47:32;4.80;99.90
20858;DHT22;10589;53.636;10.012;2023-01-31T08:49:57;4.80;99.90
20858;DHT22;10589;53.636;10.012;2023-01-31T08:52:23;4.80;99.90
20858;DHT22;10589;53.636;10.012;2023-01-31T08:54:48;4.80;99.90
20858;DHT22;10589;53.636;10.012;2023-01-31T08:57:14;4.90;99.90
20858;DHT22;10589;53.636;10.012;2023-01-31T08:59:40;4.90;99.90
20858;DHT22;10589;53.636;10.012;2023-01-31T09:02:05;4.80;99.90
20858;DHT22;10589;53.636;10.012;2023-01-31T09:04:31;4.80;99.90
20858;DHT22;10589;53.636;10.012;2023-01-31T09:06:57;4.80;99.90
20858;DHT22;10589;53.636;10.012;2023-01-31T09:09:22;4.80;99.90
20858;DHT22;10589;53.636;10.012;2023-01-31T09:11:50;4.80;99.90
20858;DHT22;10589;53.636;10.012;2023-01-31T09:14:15;4.80;99.90
20858;DHT22;10589;53.636;10.012;2023-01-31T09:16:41;4.80;99.90
20858;DHT22;10589;53.636;10.012;2023-01-31T09:19:07;4.90;99.90
20858;DHT22;10589;53.636;10.012;2023-01-31T09:21:32;4.80;99.90
20858;DHT22;10589;53.636;10.012;2023-01-31T09:23:59;4.90;99.90
20858;DHT22;10589;53.636;10.012;2023-01-31T09:26:28;4.90;99.90
20858;DHT22;10589;53.636;10.012;2023-01-31T09:28:54;4.90;99.90
20858;DHT22;10589;53.636;10.012;2023-01-31T09:31:22;4.90;99.90
20858;DHT22;10589;53.636;10.012;2023-01-31T09:33:47;4.90;99.90
20858;DHT22;10589;53.636;10.012;2023-01-31T09:36:16;4.90;99.90
20858;DHT22;10589;53.636;10.012;2023-01-31T09:38:41;4.90;99.90
20858;DHT22;10589;53.636;10.012;2023-01-31T09:41:27;4.90;99.90
20858;DHT22;10589;53.636;10.012;2023-01-31T09:43:59;5.00;99.90
20858;DHT22;10589;53.636;10.012;2023-01-31T09:46:31;5.00;99.90
20858;DHT22;10589;53.636;10.012;2023-01-31T09:48:58;5.00;99.90
20858;DHT22;10589;53.636;10.012;2023-01-31T09:51:26;5.00;99.90
20858;DHT22;10589;53.636;10.012;2023-01-31T09:53:54;4.90;99.90
20858;DHT22;10589;53.636;10.012;2023-01-31T09:56:41;4.90;99.90
20858;DHT22;10589;53.636;10.012;2023-01-31T09:59:20;4.90;99.90
20858;DHT22;10589;53.636;10.012;2023-01-31T10:07:19;5.00;99.90
20858;DHT22;10589;53.636;10.012;2023-01-31T10:13:02;5.00;99.90
20858;DHT22;10589;53.636;10.012;2023-01-31T10:16:03;5.00;99.90
20858;DHT22;10589;53.636;10.012;2023-01-31T10:18:33;5.10;99.90
20858;DHT22;10589;53.636;10.012;2023-01-31T10:21:15;5.10;99.90
20858;DHT22;10589;53.636;10.012;2023-01-31T10:23:54;5.10;99.90
20858;DHT22;10589;53.636;10.012;2023-01-31T10:26:27;5.10;99.90
20858;DHT22;10589;53.636;10.012;2023-01-31T10:32:04;5.20;99.90
20858;DHT22;10589;53.636;10.012;2023-01-31T10:34:39;5.20;99.90
20858;DHT22;10589;53.636;10.012;2023-01-31T10:37:13;5.20;99.90
20858;DHT22;10589;53.636;10.012;2023-01-31T10:39:53;5.30;99.90
20858;DHT22;10589;53.636;10.012;2023-01-31T10:42:30;5.30;99.90
20858;DHT22;10589;53.636;10.012;2023-01-31T10:45:22;5.30;99.90
20858;DHT22;10589;53.636;10.012;2023-01-31T10:56:07;5.40;99.90
20858;DHT22;10589;53.636;10.012;2023-01-31T10:58:35;5.40;99.90
20858;DHT22;10589;53.636;10.012;2023-01-31T11:01:05;5.40;99.90
20858;DHT22;10589;53.636;10.012;2023-01-31T11:03:33;5.40;99.90
20858;DHT22;10589;53.636;10.012;2023-01-31T11:05:59;5.40;99.90
20858;DHT22;10589;53.636;10.012;2023-01-31T11:08:47;5.50;99.90
20858;DHT22;10589;53.636;10.012;2023-01-31T11:11:19;5.50;99.90
20858;DHT22;10589;53.636;10.012;2023-01-31T11:13:55;5.50;99.90
20858;DHT22;10589;53.636;10.012;2023-01-31T11:16:21;5.50;99.90
20858;DHT22;10589;53.636;10.012;2023-01-31T11:18:49;5.60;99.90
20858;DHT22;10589;53.636;10.012;2023-01-31T11:21:29;5.60;99.90
20858;DHT22;10589;53.636;10.012;2023-01-31T11:24:02;5.60;99.90
20858;DHT22;10589;53.636;10.012;2023-01-31T11:26:32;5.60;99.90
20858;DHT22;10589;53.636;10.012;2023-01-31T11:28:58;5.70;99.90
20858;DHT22;10589;53.636;10.012;2023-01-31T11:31:31;5.70;99.90
20858;DHT22;10589;53.636;10.012;2023-01-31T11:34:01;5.80;99.90
20858;DHT22;10589;53.636;10.012;2023-01-31T11:36:33;5.80;99.90
20858;DHT22;10589;53.636;10.012;2023-01-31T11:39:25;5.80;99.90
20858;DHT22;10589;53.636;10.012;2023-01-31T11:41:52;5.80;99.90
20858;DHT22;10589;53.636;10.012;2023-01-31T11:44:20;5.80;99.90
20858;DHT22;10589;53.636;10.012;2023-01-31T11:49:38;5.90;99.90
20858;DHT22;10589;53.636;10.012;2023-01-31T11:52:34;5.90;99.90
20858;DHT22;10589;53.636;10.012;2023-01-31T11:55:15;5.90;99.90
20858;DHT22;10589;53.636;10.012;2023-01-31T11:57:42;6.00;99.90
20858;DHT22;10589;53.636;10.012;2023-01-31T12:00:49;6.00;99.90
20858;DHT22;10589;53.636;10.012;2023-01-31T12:03:16;6.00;99.90
20858;DHT22;10589;53.636;10.012;2023-01-31T12:05:49;5.90;99.90
20858;DHT22;10589;53.636;10.012;2023-01-31T12:08:34;6.00;99.90
20858;DHT22;10589;53.636;10.012;2023-01-31T12:11:33;6.00;99.90
20858;DHT22;10589;53.636;10.012;2023-01-31T12:16:30;6.00;99.90
20858;DHT22;10589;53.636;10.012;2023-01-31T12:27:23;6.10;99.90
20858;DHT22;10589;53.636;10.012;2023-01-31T12:32:48;6.20;99.90
20858;DHT22;10589;53.636;10.012;2023-01-31T12:35:38;6.20;99.90
20858;DHT22;10589;53.636;10.012;2023-01-31T12:48:56;6.20;99.90
20858;DHT22;10589;53.636;10.012;2023-01-31T12:57:21;6.30;99.90
20858;DHT22;10589;53.636;10.012;2023-01-31T13:08:29;6.50;99.90
20858;DHT22;10589;53.636;10.012;2023-01-31T13:11:06;6.60;99.90
20858;DHT22;10589;53.636;10.012;2023-01-31T13:13:48;6.60;99.90
20858;DHT22;10589;53.636;10.012;2023-01-31T13:16:29;6.60;99.90
20858;DHT22;10589;53.636;10.012;2023-01-31T13:18:59;6.60;99.90
20858;DHT22;10589;53.636;10.012;2023-01-31T13:21:30;6.50;99.90
20858;DHT22;10589;53.636;10.012;2023-01-31T13:24:09;6.60;99.90
20858;DHT22;10589;53.636;10.012;2023-01-31T13:26:42;6.60;99.90
20858;DHT22;10589;53.636;10.012;2023-01-31T13:29:17;6.60;99.90
20858;DHT22;10589;53.636;10.012;2023-01-31T13:32:01;6.70;99.90
20858;DHT22;10589;53.636;10.012;2023-01-31T13:34:41;6.70;99.90
20858;DHT22;10589;53.636;10.012;2023-01-31T13:37:14;6.70;99.90
20858;DHT22;10589;53.636;10.012;2023-01-31T13:39:48;6.90;99.90
20858;DHT22;10589;53.636;10.012;2023-01-31T13:42:15;6.90;99.90
20858;DHT22;10589;53.636;10.012;2023-01-31T13:44:42;6.90;99.90
20858;DHT22;10589;53.636;10.012;2023-01-31T13:47:15;7.00;99.90
20858;DHT22;10589;53.636;10.012;2023-01-31T13:49:56;7.00;99.90
20858;DHT22;10589;53.636;10.012;2023-01-31T13:52:40;7.00;99.90
20858;DHT22;10589;53.636;10.012;2023-01-31T13:55:15;7.10;99.90
20858;DHT22;10589;53.636;10.012;2023-01-31T13:57:55;7.10;99.90
20858;DHT22;10589;53.636;10.012;2023-01-31T14:00:41;7.20;99.90
20858;DHT22;10589;53.636;10.012;2023-01-31T14:03:10;7.20;99.90
20858;DHT22;10589;53.636;10.012;2023-01-31T14:10:55;7.10;99.90
20858;DHT22;10589;53.636;10.012;2023-01-31T14:13:35;7.20;99.90
20858;DHT22;10589;53.636;10.012;2023-01-31T14:16:03;7.20;99.90
20858;DHT22;10589;53.636;10.012;2023-01-31T14:18:42;7.10;99.90
20858;DHT22;10589;53.636;10.012;2023-01-31T14:23:53;7.20;99.90
20858;DHT22;10589;53.636;10.012;2023-01-31T14:29:14;7.10;99.90
20858;DHT22;10589;53.636;10.012;2023-01-31T14:31:42;7.10;99.90
20858;DHT22;10589;53.636;10.012;2023-01-31T14:34:19;7.20;99.90
20858;DHT22;10589;53.636;10.012;2023-01-31T14:42:31;7.00;99.90
20858;DHT22;10589;53.636;10.012;2023-01-31T14:53:03;6.90;99.90
20858;DHT22;10589;53.636;10.012;2023-01-31T14:58:00;6.90;99.90
20858;DHT22;10589;53.636;10.012;2023-01-31T15:00:37;6.90;99.90
20858;DHT22;10589;53.636;10.012;2023-01-31T15:05:52;6.90;99.90
20858;DHT22;10589;53.636;10.012;2023-01-31T15:11:03;7.00;99.90
20858;DHT22;10589;53.636;10.012;2023-01-31T15:13:48;6.90;99.90
20858;DHT22;10589;53.636;10.012;2023-01-31T15:16:32;6.90;99.90
20858;DHT22;10589;53.636;10.012;2023-01-31T15:19:17;6.90;99.90
20858;DHT22;10589;53.636;10.012;2023-01-31T15:21:50;7.00;99.90
20858;DHT22;10589;53.636;10.012;2023-01-31T15:24:40;6.90;99.90
20858;DHT22;10589;53.636;10.012;2023-01-31T15:27:29;7.00;99.90
20858;DHT22;10589;53.636;10.012;2023-01-31T15:32:39;6.90;99.90
20858;DHT22;10589;53.636;10.012;2023-01-31T15:40:44;6.90;99.90
20858;DHT22;10589;53.636;10.012;2023-01-31T15:43:20;6.90;99.90
20858;DHT22;10589;53.636;10.012;2023-01-31T15:45:46;6.90;99.90
20858;DHT22;10589;53.636;10.012;2023-01-31T15:48:17;6.90;99.90
20858;DHT22;10589;53.636;10.012;2023-01-31T15:53:29;7.00;99.90
20858;DHT22;10589;53.636;10.012;2023-01-31T15:55:58;6.90;99.90
20858;DHT22;10589;53.636;10.012;2023-01-31T15:58:28;6.90;99.90
20858;DHT22;10589;53.636;10.012;2023-01-31T16:00:56;7.00;99.90
20858;DHT22;10589;53.636;10.012;2023-01-31T16:03:25;7.00;99.90
20858;DHT22;10589;53.636;10.012;2023-01-31T16:05:53;7.00;99.90
20858;DHT22;10589;53.636;10.012;2023-01-31T16:08:30;7.00;99.90
20858;DHT22;10589;53.636;10.012;2023-01-31T16:10:59;7.00;99.90
20858;DHT22;10589;53.636;10.012;2023-01-31T16:13:26;6.90;99.90
20858;DHT22;10589;53.636;10.012;2023-01-31T16:15:52;7.00;99.90
20858;DHT22;10589;53.636;10.012;2023-01-31T16:18:18;6.40;99.90
20858;DHT22;10589;53.636;10.012;2023-01-31T16:20:52;5.90;99.90
20858;DHT22;10589;53.636;10.012;2023-01-31T16:23:41;5.60;99.90
20858;DHT22;10589;53.636;10.012;2023-01-31T16:26:13;5.30;99.90
20858;DHT22;10589;53.636;10.012;2023-01-31T16:28:51;5.10;99.90
20858;DHT22;10589;53.636;10.012;2023-01-31T16:31:20;5.00;99.90
20858;DHT22;10589;53.636;10.012;2023-01-31T16:33:57;4.90;99.90
20858;DHT22;10589;53.636;10.012;2023-01-31T16:36:31;4.80;99.90
20858;DHT22;10589;53.636;10.012;2023-01-31T16:39:03;4.60;99.90
20858;DHT22;10589;53.636;10.012;2023-01-31T16:44:04;4.50;99.90
20858;DHT22;10589;53.636;10.012;2023-01-31T16:46:39;4.60;99.90
20858;DHT22;10589;53.636;10.012;2023-01-31T16:49:17;4.60;99.90
20858;DHT22;10589;53.636;10.012;2023-01-31T16:51:44;4.60;99.90
20858;DHT22;10589;53.636;10.012;2023-01-31T17:02:09;4.70;99.90
20858;DHT22;10589;53.636;10.012;2023-01-31T17:04:40;4.80;99.90
20858;DHT22;10589;53.636;10.012;2023-01-31T17:07:15;4.80;99.90
20858;DHT22;10589;53.636;10.012;2023-01-31T17:09:42;4.90;99.90
20858;DHT22;10589;53.636;10.012;2023-01-31T17:12:21;4.90;99.90
20858;DHT22;10589;53.636;10.012;2023-01-31T17:14:48;4.90;99.90
20858;DHT22;10589;53.636;10.012;2023-01-31T17:17:13;5.00;99.90
20858;DHT22;10589;53.636;10.012;2023-01-31T17:19:39;5.00;99.90
20858;DHT22;10589;53.636;10.012;2023-01-31T17:22:05;5.00;99.90
20858;DHT22;10589;53.636;10.012;2023-01-31T17:24:30;5.10;99.90
20858;DHT22;10589;53.636;10.012;2023-01-31T17:26:57;5.10;99.90
20858;DHT22;10589;53.636;10.012;2023-01-31T17:29:23;5.20;99.90
20858;DHT22;10589;53.636;10.012;2023-01-31T17:31:50;5.10;99.90
20858;DHT22;10589;53.636;10.012;2023-01-31T17:34:17;5.10;99.90
20858;DHT22;10589;53.636;10.012;2023-01-31T17:36:43;5.20;99.90
20858;DHT22;10589;53.636;10.012;2023-01-31T17:39:09;5.20;99.90
20858;DHT22;10589;53.636;10.012;2023-01-31T17:41:35;5.30;99.90
20858;DHT22;10589;53.636;10.012;2023-01-31T17:44:01;5.30;99.90
20858;DHT22;10589;53.636;10.012;2023-01-31T17:46:27;5.30;99.90
20858;DHT22;10589;53.636;10.012;2023-01-31T17:48:55;5.30;99.90
20858;DHT22;10589;53.636;10.012;2023-01-31T17:51:21;5.40;99.90
20858;DHT22;10589;53.636;10.012;2023-01-31T17:53:47;5.40;99.90
20858;DHT22;10589;53.636;10.012;2023-01-31T17:56:13;5.40;99.90
20858;DHT22;10589;53.636;10.012;2023-01-31T17:58:39;5.30;99.90
20858;DHT22;10589;53.636;10.012;2023-01-31T18:01:07;5.30;99.90
20858;DHT22;10589;53.636;10.012;2023-01-31T18:03:34;5.30;99.90
20858;DHT22;10589;53.636;10.012;2023-01-31T18:06:04;5.20;99.90
20858;DHT22;10589;53.636;10.012;2023-01-31T18:08:30;5.30;99.90
20858;DHT22;10589;53.636;10.012;2023-01-31T18:11:03;5.20;99.90
20858;DHT22;10589;53.636;10.012;2023-01-31T18:13:28;5.20;99.90
20858;DHT22;10589;53.636;10.012;2023-01-31T18:16:05;5.10;99.90
20858;DHT22;10589;53.636;10.012;2023-01-31T18:18:31;5.10;99.90
20858;DHT22;10589;53.636;10.012;2023-01-31T18:20:57;5.10;99.90
20858;DHT22;10589;53.636;10.012;2023-01-31T18:23:22;5.10;99.90
20858;DHT22;10589;53.636;10.012;2023-01-31T18:25:48;5.20;99.90
20858;DHT22;10589;53.636;10.012;2023-01-31T18:28:13;5.20;99.90
20858;DHT22;10589;53.636;10.012;2023-01-31T18:30:39;5.20;99.90
20858;DHT22;10589;53.636;10.012;2023-01-31T18:33:05;5.30;99.90
20858;DHT22;10589;53.636;10.012;2023-01-31T18:35:30;5.20;99.90
20858;DHT22;10589;53.636;10.012;2023-01-31T18:37:56;4.90;99.90
20858;DHT22;10589;53.636;10.012;2023-01-31T18:40:21;4.70;99.90
20858;DHT22;10589;53.636;10.012;2023-01-31T18:42:47;4.60;99.90
20858;DHT22;10589;53.636;10.012;2023-01-31T18:45:12;4.50;99.90
20858;DHT22;10589;53.636;10.012;2023-01-31T18:47:38;4.50;99.90
20858;DHT22;10589;53.636;10.012;2023-01-31T18:50:04;4.60;99.90
20858;DHT22;10589;53.636;10.012;2023-01-31T18:52:30;4.50;99.90
20858;DHT22;10589;53.636;10.012;2023-01-31T18:54:55;4.60;99.90
20858;DHT22;10589;53.636;10.012;2023-01-31T18:57:22;4.60;99.90
20858;DHT22;10589;53.636;10.012;2023-01-31T18:59:47;4.60;99.90
20858;DHT22;10589;53.636;10.012;2023-01-31T19:02:13;4.70;99.90
20858;DHT22;10589;53.636;10.012;2023-01-31T19:04:38;4.80;99.90
20858;DHT22;10589;53.636;10.012;2023-01-31T19:07:04;4.80;99.90
20858;DHT22;10589;53.636;10.012;2023-01-31T19:09:31;4.80;99.90
20858;DHT22;10589;53.636;10.012;2023-01-31T19:11:56;4.90;99.90
20858;DHT22;10589;53.636;10.012;2023-01-31T19:14:22;4.80;99.90
20858;DHT22;10589;53.636;10.012;2023-01-31T19:16:47;4.80;99.90
20858;DHT22;10589;53.636;10.012;2023-01-31T19:19:14;4.80;99.90
20858;DHT22;10589;53.636;10.012;2023-01-31T19:21:39;4.80;99.90
20858;DHT22;10589;53.636;10.012;2023-01-31T19:24:11;4.80;99.90
20858;DHT22;10589;53.636;10.012;2023-01-31T19:26:37;4.90;99.90
20858;DHT22;10589;53.636;10.012;2023-01-31T19:29:04;4.90;99.90
20858;DHT22;10589;53.636;10.012;2023-01-31T19:31:31;4.90;99.90
20858;DHT22;10589;53.636;10.012;2023-01-31T19:33:59;4.80;99.90
20858;DHT22;10589;53.636;10.012;2023-01-31T19:36:31;4.90;99.90
20858;DHT22;10589;53.636;10.012;2023-01-31T19:38:59;4.90;99.90
20858;DHT22;10589;53.636;10.012;2023-01-31T19:41:26;4.90;99.90
20858;DHT22;10589;53.636;10.012;2023-01-31T19:43:56;4.90;99.90
20858;DHT22;10589;53.636;10.012;2023-01-31T19:46:24;4.90;99.90
20858;DHT22;10589;53.636;10.012;2023-01-31T19:48:50;4.90;99.90
20858;DHT22;10589;53.636;10.012;2023-01-31T19:51:17;4.90;99.90
20858;DHT22;10589;53.636;10.012;2023-01-31T19:53:44;4.90;99.90
20858;DHT22;10589;53.636;10.012;2023-01-31T19:56:10;4.90;99.90
20858;DHT22;10589;53.636;10.012;2023-01-31T19:58:36;5.00;99.90
20858;DHT22;10589;53.636;10.012;2023-01-31T20:01:05;5.00;99.90
20858;DHT22;10589;53.636;10.012;2023-01-31T20:03:31;5.10;99.90
20858;DHT22;10589;53.636;10.012;2023-01-31T20:06:09;5.10;99.90
20858;DHT22;10589;53.636;10.012;2023-01-31T20:08:36;5.10;99.90
20858;DHT22;10589;53.636;10.012;2023-01-31T20:11:02;5.10;99.90
20858;DHT22;10589;53.636;10.012;2023-01-31T20:13:28;5.00;99.90
20858;DHT22;10589;53.636;10.012;2023-01-31T20:16:05;5.00;99.90
20858;DHT22;10589;53.636;10.012;2023-01-31T20:18:31;5.10;99.90
20858;DHT22;10589;53.636;10.012;2023-01-31T20:20:57;5.00;99.90
20858;DHT22;10589;53.636;10.012;2023-01-31T20:23:23;5.10;99.90
20858;DHT22;10589;53.636;10.012;2023-01-31T20:25:50;5.10;99.90
20858;DHT22;10589;53.636;10.012;2023-01-31T20:28:17;5.00;99.90
20858;DHT22;10589;53.636;10.012;2023-01-31T20:30:43;4.90;99.90
20858;DHT22;10589;53.636;10.012;2023-01-31T20:33:10;4.80;99.90
20858;DHT22;10589;53.636;10.012;2023-01-31T20:35:36;4.70;99.90
20858;DHT22;10589;53.636;10.012;2023-01-31T20:38:02;4.70;99.90
20858;DHT22;10589;53.636;10.012;2023-01-31T20:40:28;4.70;99.90
20858;DHT22;10589;53.636;10.012;2023-01-31T20:42:53;4.70;99.90
20858;DHT22;10589;53.636;10.012;2023-01-31T20:45:19;4.70;99.90
20858;DHT22;10589;53.636;10.012;2023-01-31T20:47:44;4.70;99.90
20858;DHT22;10589;53.636;10.012;2023-01-31T20:50:10;4.60;99.90
20858;DHT22;10589;53.636;10.012;2023-01-31T20:52:35;4.70;99.90
20858;DHT22;10589;53.636;10.012;2023-01-31T20:55:01;4.70;99.90
20858;DHT22;10589;53.636;10.012;2023-01-31T20:57:26;4.70;99.90
20858;DHT22;10589;53.636;10.012;2023-01-31T20:59:52;4.60;99.90
20858;DHT22;10589;53.636;10.012;2023-01-31T21:02:18;4.70;99.90
20858;DHT22;10589;53.636;10.012;2023-01-31T21:04:43;4.70;99.90
20858;DHT22;10589;53.636;10.012;2023-01-31T21:07:09;4.60;99.90
20858;DHT22;10589;53.636;10.012;2023-01-31T21:09:35;4.70;99.90
20858;DHT22;10589;53.636;10.012;2023-01-31T21:12:00;4.80;99.90
20858;DHT22;10589;53.636;10.012;2023-01-31T21:14:26;4.70;99.90
20858;DHT22;10589;53.636;10.012;2023-01-31T21:16:52;4.70;99.90
20858;DHT22;10589;53.636;10.012;2023-01-31T21:19:18;4.60;99.90
20858;DHT22;10589;53.636;10.012;2023-01-31T21:21:44;4.60;99.90
20858;DHT22;10589;53.636;10.012;2023-01-31T21:24:09;4.60;99.90
20858;DHT22;10589;53.636;10.012;2023-01-31T21:26:35;4.60;99.90
20858;DHT22;10589;53.636;10.012;2023-01-31T21:29:01;4.60;99.90
20858;DHT22;10589;53.636;10.012;2023-01-31T21:31:28;4.70;99.90
20858;DHT22;10589;53.636;10.012;2023-01-31T21:33:53;4.60;99.90
20858;DHT22;10589;53.636;10.012;2023-01-31T21:36:22;4.60;99.90
20858;DHT22;10589;53.636;10.012;2023-01-31T21:38:48;4.50;99.90
20858;DHT22;10589;53.636;10.012;2023-01-31T21:41:14;4.20;99.90
20858;DHT22;10589;53.636;10.012;2023-01-31T21:43:58;4.00;99.90
20858;DHT22;10589;53.636;10.012;2023-01-31T21:46:24;4.10;99.90
20858;DHT22;10589;53.636;10.012;2023-01-31T21:48:51;4.10;99.90
20858;DHT22;10589;53.636;10.012;2023-01-31T21:51:18;4.20;99.90
20858;DHT22;10589;53.636;10.012;2023-01-31T21:53:45;4.20;99.90
20858;DHT22;10589;53.636;10.012;2023-01-31T21:56:13;4.20;99.90
20858;DHT22;10589;53.636;10.012;2023-01-31T21:58:39;4.30;99.90
20858;DHT22;10589;53.636;10.012;2023-01-31T22:01:08;4.40;99.90
20858;DHT22;10589;53.636;10.012;2023-01-31T22:03:35;4.40;99.90
20858;DHT22;10589;53.636;10.012;2023-01-31T22:06:03;4.50;99.90
20858;DHT22;10589;53.636;10.012;2023-01-31T22:08:29;4.50;99.90
20858;DHT22;10589;53.636;10.012;2023-01-31T22:10:59;4.60;99.90
20858;DHT22;10589;53.636;10.012;2023-01-31T22:13:25;4.70;99.90
20858;DHT22;10589;53.636;10.012;2023-01-31T22:15:50;4.60;99.90
20858;DHT22;10589;53.636;10.012;2023-01-31T22:18:16;4.70;99.90
20858;DHT22;10589;53.636;10.012;2023-01-31T22:20:42;4.70;99.90
20858;DHT22;10589;53.636;10.012;2023-01-31T22:23:07;4.70;99.90